Time;durP1;ratioP1;P1;durP2;ratioP2;P2;SDS_P1;SDS_P2;PMS_P1;PMS_P2;Temp;Humidity;BMP_temperature;BMP_pressure;BME280_temperature;BME280_humidity;BME280_pressure;Samples;Min_cycle;Max_cycle;Signal;HPM_P1;HPM_P2
2023/04/25 00:00:38;;;;;;;;;;;;;;;14.20;99.99;97717.71;135672;1261;22521;-66
2023/04/25 00:03:55;;;;;;;;;;;;;;;14.24;99.72;97716.48;131479;1278;5379307;-67
2023/04/25 00:06:58;;;;;;;;;;;;;;;14.18;100.00;97713.33;135678;1278;22504;-67
2023/04/25 00:10:00;;;;;;;;;;;;;;;14.08;100.00;97713.39;135660;1278;22607;-66
2023/04/25 00:13:04;;;;;;;;;;;;;;;13.94;100.00;97714.27;135667;1278;22509;-66
2023/04/25 00:16:07;;;;;;;;;;;;;;;13.80;100.00;97717.67;135665;1261;22495;-68
2023/04/25 00:19:19;;;;;;;;;;;;;;;13.76;100.00;97714.55;135537;1279;22517;-67
2023/04/25 00:22:29;;;;;;;;;;;;;;;13.70;100.00;97723.23;135675;1278;22596;-67
2023/04/25 00:25:33;;;;;;;;;;;;;;;13.64;100.00;97716.91;135586;1278;22515;-66
2023/04/25 00:28:36;;;;;;;;;;;;;;;13.58;100.00;97715.53;135681;1278;22524;-67
2023/04/25 00:31:39;;;;;;;;;;;;;;;13.53;100.00;97716.85;135657;1278;22508;-68
2023/04/25 00:34:42;;;;;;;;;;;;;;;13.50;100.00;97728.67;135671;1278;22613;-67
2023/04/25 00:37:45;;;;;;;;;;;;;;;13.40;100.00;97721.81;135656;1279;22504;-66
2023/04/25 00:40:47;;;;;;;;;;;;;;;13.28;100.00;97726.73;135694;1278;22524;-66
2023/04/25 00:43:51;;;;;;;;;;;;;;;13.24;100.00;97731.38;135651;1278;22511;-67
2023/04/25 00:46:54;;;;;;;;;;;;;;;13.18;100.00;97728.84;135670;1262;22540;-67
2023/04/25 00:49:57;;;;;;;;;;;;;;;13.02;100.00;97737.80;135705;1262;24212;-67
2023/04/25 00:53:00;;;;;;;;;;;;;;;12.94;100.00;97739.08;135674;1278;22503;-67
2023/04/25 00:56:03;;;;;;;;;;;;;;;12.83;100.00;97742.44;135690;1278;22541;-67
2023/04/25 00:59:06;;;;;;;;;;;;;;;12.78;100.00;97741.14;135685;1278;25375;-66
2023/04/25 01:02:10;;;;;;;;;;;;;;;12.72;100.00;97737.84;135677;1278;22511;-67
2023/04/25 01:05:13;;;;;;;;;;;;;;;12.68;100.00;97734.10;135664;1260;22635;-67
2023/04/25 01:08:17;;;;;;;;;;;;;;;12.59;100.00;97740.87;135623;1278;22497;-68
2023/04/25 01:11:19;;;;;;;;;;;;;;;12.55;100.00;97741.92;135629;1278;22511;-69
2023/04/25 01:14:22;;;;;;;;;;;;;;;12.51;100.00;97742.10;135662;1262;22534;-66
2023/04/25 01:17:27;;;;;;;;;;;;;;;12.48;100.00;97744.20;135650;1278;26516;-67
2023/04/25 01:20:31;;;;;;;;;;;;;;;12.44;100.00;97740.17;135676;1279;22525;-67
2023/04/25 01:23:34;;;;;;;;;;;;;;;12.33;100.00;97744.80;135649;1278;25891;-66
2023/04/25 01:26:36;;;;;;;;;;;;;;;12.21;100.00;97743.56;135661;1278;22505;-67
2023/04/25 01:29:40;;;;;;;;;;;;;;;12.17;100.00;97742.30;135682;1279;22508;-67
2023/04/25 01:32:42;;;;;;;;;;;;;;;12.13;100.00;97748.81;135619;1278;22504;-67
2023/04/25 01:35:47;;;;;;;;;;;;;;;12.02;100.00;97749.52;135660;1278;22531;-67
2023/04/25 01:38:50;;;;;;;;;;;;;;;11.96;100.00;97748.84;135671;1278;22530;-66
2023/04/25 01:41:53;;;;;;;;;;;;;;;11.87;100.00;97750.56;135636;1278;22535;-66
2023/04/25 01:44:56;;;;;;;;;;;;;;;11.84;100.00;97754.70;135680;1264;22613;-68
2023/04/25 01:47:59;;;;;;;;;;;;;;;11.84;100.00;97757.84;135691;1278;22552;-66
2023/04/25 01:51:02;;;;;;;;;;;;;;;11.81;100.00;97760.33;135696;1278;22535;-67
2023/04/25 01:54:05;;;;;;;;;;;;;;;11.80;100.00;97760.27;135636;1278;22514;-66
2023/04/25 01:57:08;;;;;;;;;;;;;;;11.72;100.00;97759.52;135685;1278;22503;-67
2023/04/25 02:00:11;;;;;;;;;;;;;;;11.68;100.00;97757.72;135693;1262;22504;-66
2023/04/25 02:03:14;;;;;;;;;;;;;;;11.68;100.00;97758.41;135591;1279;22555;-66
2023/04/25 02:06:18;;;;;;;;;;;;;;;11.70;100.00;97760.05;135644;1278;22504;-66
2023/04/25 02:09:21;;;;;;;;;;;;;;;11.69;100.00;97758.14;135573;1278;22531;-66
2023/04/25 02:12:26;;;;;;;;;;;;;;;11.70;100.00;97757.09;135470;1262;22515;-67
2023/04/25 02:15:29;;;;;;;;;;;;;;;11.59;100.00;97755.16;135565;1259;22499;-66
2023/04/25 02:18:32;;;;;;;;;;;;;;;11.62;100.00;97755.58;135530;1278;22497;-67
2023/04/25 02:21:36;;;;;;;;;;;;;;;11.66;100.00;97755.41;135654;1279;22528;-66
2023/04/25 02:24:39;;;;;;;;;;;;;;;11.69;100.00;97754.19;135652;1260;22498;-66
2023/04/25 02:27:42;;;;;;;;;;;;;;;11.61;100.00;97754.64;135676;1279;22488;-67
2023/04/25 02:30:45;;;;;;;;;;;;;;;11.66;100.00;97750.94;135666;1279;22521;-65
2023/04/25 02:33:56;;;;;;;;;;;;;;;11.68;100.00;97748.67;135615;1260;22506;-66
2023/04/25 02:36:59;;;;;;;;;;;;;;;11.64;100.00;97742.98;135603;1278;22512;-67
2023/04/25 02:40:03;;;;;;;;;;;;;;;11.62;100.00;97737.36;135649;1278;22500;-66
2023/04/25 02:43:07;;;;;;;;;;;;;;;11.63;100.00;97739.94;135640;1279;22513;-67
2023/04/25 02:46:10;;;;;;;;;;;;;;;11.66;100.00;97738.61;135694;1279;22506;-66
2023/04/25 02:49:14;;;;;;;;;;;;;;;11.69;100.00;97742.27;135691;1279;22502;-67
2023/04/25 02:52:17;;;;;;;;;;;;;;;11.72;100.00;97746.02;135680;1278;22504;-66
2023/04/25 02:55:22;;;;;;;;;;;;;;;11.65;100.00;97746.58;135659;1278;22496;-67
2023/04/25 02:58:26;;;;;;;;;;;;;;;11.70;100.00;97744.84;135675;1279;22500;-67
2023/04/25 03:01:32;;;;;;;;;;;;;;;11.40;100.00;97744.45;135622;1279;22525;-67
2023/04/25 03:04:35;;;;;;;;;;;;;;;11.43;100.00;97745.77;135609;1279;22518;-67
2023/04/25 03:07:39;;;;;;;;;;;;;;;11.53;100.00;97747.24;135674;1279;22535;-68
2023/04/25 03:10:42;;;;;;;;;;;;;;;11.45;100.00;97741.23;135504;1274;22514;-66
2023/04/25 03:13:45;;;;;;;;;;;;;;;11.52;100.00;97745.38;135671;1278;22524;-67
2023/04/25 03:16:49;;;;;;;;;;;;;;;11.57;100.00;97744.48;135638;1278;22508;-67
2023/04/25 03:19:55;;;;;;;;;;;;;;;11.49;100.00;97749.34;135688;1279;22511;-68
2023/04/25 03:22:59;;;;;;;;;;;;;;;11.51;100.00;97746.67;135629;1279;22534;-68
2023/04/25 03:26:02;;;;;;;;;;;;;;;11.36;100.00;97748.48;135624;1278;22508;-68
2023/04/25 03:29:06;;;;;;;;;;;;;;;11.39;100.00;97744.00;135676;1278;22504;-66
2023/04/25 03:32:12;;;;;;;;;;;;;;;11.33;100.00;97753.55;135677;1278;22501;-67
2023/04/25 03:35:15;;;;;;;;;;;;;;;11.24;100.00;97751.89;135668;1278;22497;-67
2023/04/25 03:38:18;;;;;;;;;;;;;;;11.28;100.00;97760.23;135704;1279;22505;-67
2023/04/25 03:41:24;;;;;;;;;;;;;;;11.33;100.00;97763.75;135676;1278;22531;-66
2023/04/25 03:44:28;;;;;;;;;;;;;;;11.37;100.00;97766.92;135702;1279;22498;-67
2023/04/25 03:47:31;;;;;;;;;;;;;;;11.28;100.00;97767.09;135684;1278;22504;-66
2023/04/25 03:50:35;;;;;;;;;;;;;;;11.23;100.00;97770.67;135644;1279;22505;-67
2023/04/25 03:53:38;;;;;;;;;;;;;;;11.18;100.00;97767.94;135645;1279;22519;-67
2023/04/25 03:56:42;;;;;;;;;;;;;;;11.16;100.00;97772.48;135685;1278;22516;-66
2023/04/25 03:59:45;;;;;;;;;;;;;;;11.15;100.00;97765.75;135661;1278;22511;-66
2023/04/25 04:02:49;;;;;;;;;;;;;;;11.14;100.00;97767.89;135658;1279;22508;-66
2023/04/25 04:05:54;;;;;;;;;;;;;;;10.95;100.00;97768.35;135713;1279;22528;-66
2023/04/25 04:08:59;;;;;;;;;;;;;;;11.01;100.00;97766.50;135673;1278;22491;-68
2023/04/25 04:12:03;;;;;;;;;;;;;;;10.99;100.00;97776.58;135677;1278;22515;-67
2023/04/25 04:15:06;;;;;;;;;;;;;;;11.08;100.00;97775.59;135649;1278;22694;-66
2023/04/25 04:18:10;;;;;;;;;;;;;;;11.02;100.00;97782.33;135720;1278;22502;-67
2023/04/25 04:21:14;;;;;;;;;;;;;;;11.10;100.00;97784.42;135684;1279;22549;-67
2023/04/25 04:24:19;;;;;;;;;;;;;;;11.30;100.00;97786.39;135671;1278;22511;-66
2023/04/25 04:27:22;;;;;;;;;;;;;;;11.17;100.00;97791.30;135633;1278;22514;-66
2023/04/25 04:30:29;;;;;;;;;;;;;;;11.12;100.00;97787.10;135669;1278;22507;-67
2023/04/25 04:33:34;;;;;;;;;;;;;;;11.12;100.00;97790.77;135693;1279;23944;-67
2023/04/25 04:36:39;;;;;;;;;;;;;;;11.11;100.00;97789.83;135635;1278;25210;-66
2023/04/25 04:39:42;;;;;;;;;;;;;;;11.19;100.00;97790.78;135623;1279;25143;-66
2023/04/25 04:42:46;;;;;;;;;;;;;;;11.26;100.00;97791.73;135598;1279;22579;-66
2023/04/25 04:45:50;;;;;;;;;;;;;;;11.27;100.00;97793.23;135556;1279;22514;-67
2023/04/25 04:48:56;;;;;;;;;;;;;;;11.24;100.00;97795.92;135594;1278;24379;-66
2023/04/25 04:52:00;;;;;;;;;;;;;;;11.03;100.00;97798.09;135666;1279;22756;-66
2023/04/25 04:55:04;;;;;;;;;;;;;;;10.83;100.00;97802.30;135657;1279;22617;-67
2023/04/25 04:58:08;;;;;;;;;;;;;;;10.92;100.00;97806.16;135569;1278;22614;-67
2023/04/25 05:01:11;;;;;;;;;;;;;;;10.88;100.00;97809.45;135512;1279;22528;-67
2023/04/25 05:04:15;;;;;;;;;;;;;;;10.94;100.00;97808.50;135580;1279;22550;-67
2023/04/25 05:07:18;;;;;;;;;;;;;;;10.91;100.00;97813.23;135694;1279;22498;-67
2023/04/25 05:10:22;;;;;;;;;;;;;;;10.85;100.00;97814.42;135636;1278;22513;-66
2023/04/25 05:13:24;;;;;;;;;;;;;;;10.80;100.00;97816.04;135512;1279;25472;-65
2023/04/25 05:16:27;;;;;;;;;;;;;;;10.77;100.00;97814.18;135685;1278;22531;-66
2023/04/25 05:19:30;;;;;;;;;;;;;;;10.80;100.00;97812.36;135675;1278;22511;-66
2023/04/25 05:22:34;;;;;;;;;;;;;;;10.82;100.00;97815.48;135642;1279;22520;-67
2023/04/25 05:25:36;;;;;;;;;;;;;;;10.95;100.00;97821.88;135618;1279;22509;-66
2023/04/25 05:28:40;;;;;;;;;;;;;;;10.91;100.00;97823.90;135699;1279;24440;-67
2023/04/25 05:31:44;;;;;;;;;;;;;;;10.92;100.00;97826.77;135696;1279;22503;-67
2023/04/25 05:34:47;;;;;;;;;;;;;;;10.99;100.00;97829.07;135680;1278;22515;-69
2023/04/25 05:37:50;;;;;;;;;;;;;;;10.83;100.00;97835.88;135652;1278;22517;-66
2023/04/25 05:40:54;;;;;;;;;;;;;;;10.89;100.00;97837.86;135661;1278;22499;-67
2023/04/25 05:43:58;;;;;;;;;;;;;;;10.88;100.00;97839.38;135657;1279;22501;-67
2023/04/25 05:47:01;;;;;;;;;;;;;;;10.75;100.00;97845.22;135653;1279;22504;-66
2023/04/25 05:50:08;;;;;;;;;;;;;;;10.79;100.00;97843.23;135703;1270;22541;-67
2023/04/25 05:53:11;;;;;;;;;;;;;;;10.70;100.00;97849.11;135668;1279;22524;-66
2023/04/25 05:56:14;;;;;;;;;;;;;;;10.58;100.00;97848.16;135680;1278;22501;-66
2023/04/25 05:59:17;;;;;;;;;;;;;;;10.60;100.00;97849.02;135683;1270;22504;-66
2023/04/25 06:02:21;;;;;;;;;;;;;;;10.56;100.00;97850.89;135673;1278;24403;-66
2023/04/25 06:05:24;;;;;;;;;;;;;;;10.53;100.00;97851.50;135627;1279;22505;-67
2023/04/25 06:08:27;;;;;;;;;;;;;;;10.46;100.00;97858.33;135670;1260;22497;-66
2023/04/25 06:11:30;;;;;;;;;;;;;;;10.48;100.00;97858.53;135639;1279;22512;-68
2023/04/25 06:14:33;;;;;;;;;;;;;;;10.47;100.00;97860.64;135694;1279;22514;-66
2023/04/25 06:17:36;;;;;;;;;;;;;;;10.35;100.00;97860.98;135698;1279;22533;-67
2023/04/25 06:20:39;;;;;;;;;;;;;;;10.20;100.00;97863.17;135506;1279;22511;-67
2023/04/25 06:23:47;;;;;;;;;;;;;;;10.30;100.00;97865.95;135661;1279;24243;-67
2023/04/25 06:26:51;;;;;;;;;;;;;;;10.44;100.00;97865.81;135663;1279;22504;-68
2023/04/25 06:29:53;;;;;;;;;;;;;;;10.38;100.00;97864.67;135657;1278;22519;-67
2023/04/25 06:32:57;;;;;;;;;;;;;;;10.45;100.00;97867.16;135671;1279;22584;-67
2023/04/25 06:36:00;;;;;;;;;;;;;;;10.42;100.00;97864.59;135686;1278;22564;-67
2023/04/25 06:39:04;;;;;;;;;;;;;;;10.35;100.00;97868.72;135672;1279;24241;-67
2023/04/25 06:42:08;;;;;;;;;;;;;;;10.40;100.00;97870.81;135686;1279;22648;-66
2023/04/25 06:45:11;;;;;;;;;;;;;;;10.40;100.00;97872.42;135720;1279;22502;-67
2023/04/25 06:48:15;;;;;;;;;;;;;;;10.44;100.00;97867.21;135684;1279;22505;-67
2023/04/25 06:51:18;;;;;;;;;;;;;;;10.50;100.00;97871.09;135679;1278;22516;-67
2023/04/25 06:54:22;;;;;;;;;;;;;;;10.41;100.00;97870.05;135668;1278;22511;-69
2023/04/25 06:57:25;;;;;;;;;;;;;;;10.59;100.00;97870.13;135673;1279;22513;-66
2023/04/25 07:00:30;;;;;;;;;;;;;;;10.33;100.00;97874.81;135672;1278;22560;-66
2023/04/25 07:03:34;;;;;;;;;;;;;;;10.13;100.00;97871.94;135701;1278;22510;-66
2023/04/25 07:06:42;;;;;;;;;;;;;;;10.12;100.00;97875.87;135686;1278;23980;-66
2023/04/25 07:09:45;;;;;;;;;;;;;;;10.38;100.00;97872.35;135660;1279;22610;-67
2023/04/25 07:12:49;;;;;;;;;;;;;;;10.50;100.00;97871.77;135707;1279;22511;-66
2023/04/25 07:15:52;;;;;;;;;;;;;;;10.49;100.00;97875.20;135683;1279;22526;-67
2023/04/25 07:18:56;;;;;;;;;;;;;;;10.55;100.00;97872.33;135586;1278;22513;-66
2023/04/25 07:22:00;;;;;;;;;;;;;;;10.61;100.00;97874.30;135703;1278;22511;-66
2023/04/25 07:25:03;;;;;;;;;;;;;;;10.70;100.00;97872.90;135709;1278;22507;-66
2023/04/25 07:28:07;;;;;;;;;;;;;;;10.71;100.00;97874.55;135648;1278;22573;-66
2023/04/25 07:31:11;;;;;;;;;;;;;;;10.74;100.00;97880.80;135607;1279;22508;-66
2023/04/25 07:34:15;;;;;;;;;;;;;;;10.73;100.00;97883.16;135583;1279;22495;-66
2023/04/25 07:37:19;;;;;;;;;;;;;;;10.67;100.00;97884.81;135628;1278;22539;-67
2023/04/25 07:40:23;;;;;;;;;;;;;;;10.65;100.00;97885.52;135578;1278;22508;-66
2023/04/25 07:43:26;;;;;;;;;;;;;;;10.64;100.00;97886.13;135662;1279;22504;-67
2023/04/25 07:46:31;;;;;;;;;;;;;;;10.71;100.00;97885.61;135685;1279;22513;-66
2023/04/25 07:49:35;;;;;;;;;;;;;;;10.78;100.00;97882.31;135654;1278;22511;-66
2023/04/25 07:52:39;;;;;;;;;;;;;;;10.87;100.00;97882.98;135722;1278;22534;-67
2023/04/25 07:55:41;;;;;;;;;;;;;;;10.91;100.00;97884.23;135671;1278;22507;-68
2023/04/25 07:58:45;;;;;;;;;;;;;;;10.92;100.00;97885.36;135698;1279;22509;-67
2023/04/25 08:01:48;;;;;;;;;;;;;;;10.96;100.00;97885.63;135678;1278;22514;-66
2023/04/25 08:04:51;;;;;;;;;;;;;;;10.98;100.00;97887.02;135685;1279;22511;-67
2023/04/25 08:07:56;;;;;;;;;;;;;;;10.95;100.00;97887.61;135661;1278;22514;-67
2023/04/25 08:11:00;;;;;;;;;;;;;;;10.99;100.00;97885.38;135699;1278;22488;-69
2023/04/25 08:14:04;;;;;;;;;;;;;;;10.98;100.00;97896.48;135695;1278;22502;-67
2023/04/25 08:17:07;;;;;;;;;;;;;;;11.09;100.00;97893.02;135654;1279;22512;-66
2023/04/25 08:20:10;;;;;;;;;;;;;;;11.15;100.00;97894.33;135716;1279;22578;-66
2023/04/25 08:23:14;;;;;;;;;;;;;;;11.19;100.00;97890.52;135693;1278;22510;-67
2023/04/25 08:26:17;;;;;;;;;;;;;;;11.13;100.00;97890.95;135669;1278;22540;-67
2023/04/25 08:29:23;;;;;;;;;;;;;;;11.09;100.00;97893.02;135649;1278;22490;-67
2023/04/25 08:32:26;;;;;;;;;;;;;;;11.07;100.00;97900.48;135685;1278;22519;-66
2023/04/25 08:35:29;;;;;;;;;;;;;;;11.07;100.00;97896.85;135719;1278;22503;-66
2023/04/25 08:38:32;;;;;;;;;;;;;;;11.14;100.00;97898.40;135694;1279;24273;-66
2023/04/25 08:41:37;;;;;;;;;;;;;;;11.26;100.00;97901.27;135654;1279;25271;-67
2023/04/25 08:44:41;;;;;;;;;;;;;;;11.25;100.00;97905.57;135676;1279;25334;-66
2023/04/25 08:47:44;;;;;;;;;;;;;;;11.23;100.00;97905.55;135665;1279;22519;-68
2023/04/25 08:50:48;;;;;;;;;;;;;;;11.46;100.00;97904.83;135685;1279;22507;-67
2023/04/25 08:53:52;;;;;;;;;;;;;;;11.50;100.00;97911.68;135683;1279;22516;-66
2023/04/25 08:56:55;;;;;;;;;;;;;;;11.46;100.00;97905.70;135692;1279;22542;-66
2023/04/25 08:59:59;;;;;;;;;;;;;;;11.39;100.00;97910.14;135700;1279;22504;-66
2023/04/25 09:03:02;;;;;;;;;;;;;;;11.47;100.00;97909.88;135700;1279;22501;-67
2023/04/25 09:06:06;;;;;;;;;;;;;;;11.65;100.00;97906.44;135529;1279;25224;-66
2023/04/25 09:09:13;;;;;;;;;;;;;;;11.95;100.00;97910.62;135709;1279;22532;-69
2023/04/25 09:12:16;;;;;;;;;;;;;;;12.29;100.00;97912.05;135690;1279;22507;-67
2023/04/25 09:15:20;;;;;;;;;;;;;;;12.52;100.00;97912.73;135693;1278;22500;-66
2023/04/25 09:18:24;;;;;;;;;;;;;;;12.71;100.00;97914.73;135695;1279;22496;-69
2023/04/25 09:21:27;;;;;;;;;;;;;;;12.56;99.84;97918.45;135536;1278;22568;-67
2023/04/25 09:24:31;;;;;;;;;;;;;;;12.48;99.39;97917.70;135697;1279;22507;-66
2023/04/25 09:27:34;;;;;;;;;;;;;;;12.59;100.00;97919.03;135690;1279;22514;-66
2023/04/25 09:30:38;;;;;;;;;;;;;;;12.68;99.48;97915.98;135454;1280;22522;-67
2023/04/25 09:33:42;;;;;;;;;;;;;;;12.68;99.78;97915.66;135414;1280;22672;-68
2023/04/25 09:36:46;;;;;;;;;;;;;;;12.74;100.00;97925.15;135420;1280;25330;-66
2023/04/25 09:39:49;;;;;;;;;;;;;;;12.73;97.76;97922.97;135453;1280;22505;-67
2023/04/25 09:42:53;;;;;;;;;;;;;;;12.81;99.31;97923.52;135445;1280;22507;-67
2023/04/25 09:45:59;;;;;;;;;;;;;;;12.88;99.91;97926.77;135394;1280;22524;-66
2023/04/25 09:49:03;;;;;;;;;;;;;;;12.86;98.80;97928.84;135408;1280;22545;-67
2023/04/25 09:52:06;;;;;;;;;;;;;;;12.83;97.68;97932.12;135348;1280;22541;-67
2023/04/25 09:55:09;;;;;;;;;;;;;;;12.75;89.58;97933.79;135394;1280;22563;-66
2023/04/25 09:58:14;;;;;;;;;;;;;;;12.64;85.04;97937.23;135355;1261;22507;-67
2023/04/25 10:01:16;;;;;;;;;;;;;;;12.62;85.66;97940.19;135440;1261;22984;-67
2023/04/25 10:04:19;;;;;;;;;;;;;;;12.63;87.23;97937.79;135414;1280;22514;-66
2023/04/25 10:07:25;;;;;;;;;;;;;;;12.62;86.32;97935.60;135428;1280;22519;-67
2023/04/25 10:10:28;;;;;;;;;;;;;;;12.68;88.31;97932.85;135385;1260;22630;-66
2023/04/25 10:13:31;;;;;;;;;;;;;;;12.75;88.52;97939.95;135472;1280;22531;-67
2023/04/25 10:16:34;;;;;;;;;;;;;;;12.84;85.95;97937.65;135367;1280;25247;-66
2023/04/25 10:19:38;;;;;;;;;;;;;;;12.91;82.39;97936.91;135328;1280;25257;-67
2023/04/25 10:22:41;;;;;;;;;;;;;;;12.86;83.83;97937.69;135340;1280;22532;-67
2023/04/25 10:25:44;;;;;;;;;;;;;;;12.86;79.45;97933.61;135347;1280;22522;-66
2023/04/25 10:28:47;;;;;;;;;;;;;;;13.08;82.46;97926.64;135470;1278;25304;-66
2023/04/25 10:31:54;;;;;;;;;;;;;;;13.33;82.31;97926.86;135664;1279;22517;-66
2023/04/25 10:34:57;;;;;;;;;;;;;;;13.48;78.37;97928.84;135730;1270;22513;-66
2023/04/25 10:38:00;;;;;;;;;;;;;;;13.65;80.69;97922.52;135661;1279;25390;-66
2023/04/25 10:41:03;;;;;;;;;;;;;;;13.82;80.91;97921.17;135693;1275;22732;-67
2023/04/25 10:44:07;;;;;;;;;;;;;;;14.05;83.65;97912.98;135731;1278;22518;-66
2023/04/25 10:47:10;;;;;;;;;;;;;;;14.17;81.43;97915.04;135750;1260;23128;-66
2023/04/25 10:50:13;;;;;;;;;;;;;;;13.82;79.56;97912.23;135718;1278;22551;-66
2023/04/25 10:53:16;;;;;;;;;;;;;;;13.62;80.58;97912.36;135738;1278;22611;-67
2023/04/25 10:56:19;;;;;;;;;;;;;;;13.51;83.00;97915.82;135701;1257;22517;-66
2023/04/25 10:59:22;;;;;;;;;;;;;;;13.48;82.10;97918.70;135503;1278;25607;-66
2023/04/25 11:02:25;;;;;;;;;;;;;;;13.26;80.44;97918.30;135510;1278;22528;-66
2023/04/25 11:05:29;;;;;;;;;;;;;;;13.03;82.84;97915.35;135723;1260;23136;-67
2023/04/25 11:08:33;;;;;;;;;;;;;;;12.84;85.80;97915.01;135752;1279;22503;-66
2023/04/25 11:11:36;;;;;;;;;;;;;;;12.68;88.50;97916.14;135785;1278;22999;-66
2023/04/25 11:14:39;;;;;;;;;;;;;;;12.72;88.44;97910.90;135721;1278;22912;-66
2023/04/25 11:17:44;;;;;;;;;;;;;;;12.91;89.18;97909.33;135708;1279;25430;-67
2023/04/25 11:20:48;;;;;;;;;;;;;;;13.01;86.04;97909.71;135755;1279;23106;-66
2023/04/25 11:23:51;;;;;;;;;;;;;;;13.02;85.15;97906.83;135747;1278;23761;-66
2023/04/25 11:26:54;;;;;;;;;;;;;;;12.98;83.51;97905.36;135710;1278;22511;-66
2023/04/25 11:29:57;;;;;;;;;;;;;;;12.84;85.56;97911.16;135736;1278;22562;-66
2023/04/25 11:33:02;;;;;;;;;;;;;;;12.64;82.97;97917.75;135747;1278;22543;-67
2023/04/25 11:36:06;;;;;;;;;;;;;;;12.51;83.04;97914.27;135741;1278;22536;-67
2023/04/25 11:39:09;;;;;;;;;;;;;;;12.51;83.79;97916.19;135728;1278;22517;-66
2023/04/25 11:42:13;;;;;;;;;;;;;;;12.53;83.82;97920.25;135743;1278;22524;-68
2023/04/25 11:45:18;;;;;;;;;;;;;;;12.66;80.23;97922.13;135765;1278;22517;-66
2023/04/25 11:48:22;;;;;;;;;;;;;;;12.62;78.88;97921.42;135734;1278;22500;-66
2023/04/25 11:51:26;;;;;;;;;;;;;;;12.65;75.20;97921.66;135685;1278;22493;-67
2023/04/25 11:54:29;;;;;;;;;;;;;;;12.75;75.70;97920.80;135754;1278;22520;-66
2023/04/25 11:57:33;;;;;;;;;;;;;;;12.96;78.16;97913.96;135752;1278;22532;-67
2023/04/25 12:00:37;;;;;;;;;;;;;;;13.01;75.06;97917.27;135713;1278;22516;-66
2023/04/25 12:03:40;;;;;;;;;;;;;;;13.07;73.43;97912.05;131513;1278;5379436;-66
2023/04/25 12:06:43;;;;;;;;;;;;;;;12.99;73.60;97914.40;135752;1278;22511;-67
2023/04/25 12:09:46;;;;;;;;;;;;;;;12.98;77.05;97910.32;135759;1278;22615;-68
2023/04/25 12:12:49;;;;;;;;;;;;;;;12.75;75.97;97908.77;135783;1278;22515;-66
2023/04/25 12:15:52;;;;;;;;;;;;;;;12.61;76.70;97913.27;135790;1260;22528;-65
2023/04/25 12:18:56;;;;;;;;;;;;;;;12.62;76.93;97918.42;135770;1278;22532;-67
2023/04/25 12:21:59;;;;;;;;;;;;;;;12.66;77.51;97915.95;135751;1275;22639;-66
2023/04/25 12:25:03;;;;;;;;;;;;;;;12.81;78.47;97913.34;135754;1278;22528;-66
2023/04/25 12:28:08;;;;;;;;;;;;;;;12.88;74.79;97918.31;135773;1278;22529;-67
2023/04/25 12:31:11;;;;;;;;;;;;;;;12.96;75.53;97917.09;135720;1278;24393;-66
2023/04/25 12:34:14;;;;;;;;;;;;;;;12.91;74.41;97916.21;135715;1278;24361;-66
2023/04/25 12:37:17;;;;;;;;;;;;;;;12.81;74.88;97914.36;135799;1278;22540;-66
2023/04/25 12:40:20;;;;;;;;;;;;;;;12.71;75.40;97915.44;135751;1278;22647;-67
2023/04/25 12:43:23;;;;;;;;;;;;;;;12.55;74.85;97914.26;135711;1278;25290;-67
2023/04/25 12:46:26;;;;;;;;;;;;;;;12.44;75.41;97912.55;135757;1278;22540;-66
2023/04/25 12:49:29;;;;;;;;;;;;;;;12.35;77.37;97911.55;135745;1260;24198;-67
2023/04/25 12:52:33;;;;;;;;;;;;;;;12.39;79.18;97910.48;135763;1278;22514;-66
2023/04/25 12:55:36;;;;;;;;;;;;;;;12.45;79.40;97907.67;135761;1278;22504;-66
2023/04/25 12:58:39;;;;;;;;;;;;;;;12.60;79.53;97906.09;135774;1278;22516;-66
2023/04/25 13:01:45;;;;;;;;;;;;;;;12.56;76.48;97907.73;135702;1278;22527;-68
2023/04/25 13:04:49;;;;;;;;;;;;;;;12.14;78.27;97910.84;135718;1278;22533;-67
2023/04/25 13:07:53;;;;;;;;;;;;;;;12.25;78.80;97906.06;135706;1278;22552;-66
2023/04/25 13:10:56;;;;;;;;;;;;;;;12.26;78.17;97909.63;135749;1278;22523;-66
2023/04/25 13:14:00;;;;;;;;;;;;;;;12.28;80.92;97904.56;135663;1278;22540;-66
2023/04/25 13:17:04;;;;;;;;;;;;;;;12.35;81.31;97904.00;135721;1278;22514;-66
2023/04/25 13:20:09;;;;;;;;;;;;;;;12.31;82.27;97908.00;135653;1278;22507;-66
2023/04/25 13:23:13;;;;;;;;;;;;;;;12.45;82.25;97910.67;135699;1278;22500;-67
2023/04/25 13:26:16;;;;;;;;;;;;;;;12.48;83.32;97905.52;135681;1278;22497;-66
2023/04/25 13:29:19;;;;;;;;;;;;;;;12.53;83.58;97905.14;135715;1278;24217;-67
2023/04/25 13:32:23;;;;;;;;;;;;;;;12.62;82.04;97901.42;135749;1278;22539;-67
2023/04/25 13:35:25;;;;;;;;;;;;;;;12.65;82.38;97904.80;135749;1278;22511;-67
2023/04/25 13:38:28;;;;;;;;;;;;;;;12.75;81.79;97905.42;135772;1279;25373;-67
2023/04/25 13:41:31;;;;;;;;;;;;;;;12.83;80.79;97903.52;135784;1278;23405;-65
2023/04/25 13:44:34;;;;;;;;;;;;;;;12.82;81.61;97901.32;135737;1278;22518;-66
2023/04/25 13:47:38;;;;;;;;;;;;;;;12.91;81.04;97900.70;135748;1278;22519;-67
2023/04/25 13:50:41;;;;;;;;;;;;;;;12.90;80.68;97902.36;135732;1278;22510;-67
2023/04/25 13:53:45;;;;;;;;;;;;;;;12.82;81.97;97899.89;135713;1278;22503;-67
2023/04/25 13:56:49;;;;;;;;;;;;;;;12.74;81.15;97904.60;135750;1278;22525;-67
2023/04/25 13:59:52;;;;;;;;;;;;;;;12.63;81.26;97902.35;135738;1278;22493;-67
2023/04/25 14:02:56;;;;;;;;;;;;;;;12.68;81.44;97900.05;135775;1278;22523;-65
2023/04/25 14:05:59;;;;;;;;;;;;;;;12.74;82.39;97907.25;135759;1278;23346;-66
2023/04/25 14:09:04;;;;;;;;;;;;;;;12.63;82.41;97910.64;135718;1278;22500;-66
2023/04/25 14:12:08;;;;;;;;;;;;;;;12.67;83.24;97916.13;135733;1278;22500;-67
2023/04/25 14:15:12;;;;;;;;;;;;;;;12.68;84.73;97916.58;135739;1279;22517;-66
2023/04/25 14:18:15;;;;;;;;;;;;;;;12.61;80.50;97914.16;135772;1265;22529;-67
2023/04/25 14:21:22;;;;;;;;;;;;;;;12.42;75.62;97913.55;135749;1278;22521;-67
2023/04/25 14:24:25;;;;;;;;;;;;;;;12.37;79.79;97910.34;135777;1279;24280;-67
2023/04/25 14:27:28;;;;;;;;;;;;;;;12.40;80.41;97912.65;135788;1278;22507;-69
2023/04/25 14:30:32;;;;;;;;;;;;;;;12.50;80.40;97913.66;135791;1278;22500;-67
2023/04/25 14:33:37;;;;;;;;;;;;;;;12.43;77.69;97915.96;135758;1278;22510;-67
2023/04/25 14:36:39;;;;;;;;;;;;;;;12.47;78.21;97910.05;135679;1278;25333;-66
2023/04/25 14:39:43;;;;;;;;;;;;;;;12.47;77.22;97912.78;135717;1278;25240;-66
2023/04/25 14:42:46;;;;;;;;;;;;;;;12.47;78.04;97912.48;135756;1279;25329;-67
2023/04/25 14:45:49;;;;;;;;;;;;;;;12.57;77.81;97913.59;135527;1278;22522;-68
2023/04/25 14:48:52;;;;;;;;;;;;;;;12.60;78.99;97913.85;135757;1278;22503;-67
2023/04/25 14:51:54;;;;;;;;;;;;;;;12.58;80.32;97919.41;135764;1278;22509;-66
2023/04/25 14:54:59;;;;;;;;;;;;;;;12.56;80.68;97912.98;135757;1278;22511;-69
2023/04/25 14:58:03;;;;;;;;;;;;;;;12.52;79.56;97920.49;135775;1278;25256;-67
2023/04/25 15:01:06;;;;;;;;;;;;;;;12.48;80.64;97918.70;135780;1278;23857;-67
2023/04/25 15:04:10;;;;;;;;;;;;;;;12.56;81.90;97925.41;135773;1278;22553;-68
2023/04/25 15:07:14;;;;;;;;;;;;;;;12.63;81.75;97916.95;135778;1278;22497;-67
2023/04/25 15:10:20;;;;;;;;;;;;;;;12.63;82.30;97918.14;135787;1278;22494;-66
2023/04/25 15:13:22;;;;;;;;;;;;;;;12.65;80.87;97922.23;135791;1278;22513;-66
2023/04/25 15:16:26;;;;;;;;;;;;;;;12.60;79.10;97928.44;135772;1278;25386;-67
2023/04/25 15:19:29;;;;;;;;;;;;;;;12.54;77.60;97927.51;135754;1278;24388;-66
2023/04/25 15:22:35;;;;;;;;;;;;;;;12.40;71.86;97927.05;135766;1278;25334;-65
2023/04/25 15:25:38;;;;;;;;;;;;;;;12.29;73.67;97931.62;135781;1278;22506;-66
2023/04/25 15:28:42;;;;;;;;;;;;;;;12.29;75.46;97929.39;135775;1278;22539;-66
2023/04/25 15:31:46;;;;;;;;;;;;;;;12.26;75.53;97931.77;135777;1279;22535;-66
2023/04/25 15:34:53;;;;;;;;;;;;;;;12.19;76.29;97934.44;135750;1278;22517;-68